sensor_id;sensor_type;location;lat;lon;timestamp;pressure;altitude;pressure_sealevel;temperature;humidity
14232;BME280;7200;52.194;9.900;2023-02-19T00:01:27;100270.16;;;10.02;100.00
14232;BME280;7200;52.194;9.900;2023-02-19T00:03:56;100249.59;;;9.88;100.00
14232;BME280;7200;52.194;9.900;2023-02-19T00:06:22;100247.31;;;9.79;100.00
14232;BME280;7200;52.194;9.900;2023-02-19T00:08:48;100275.69;;;9.96;100.00
14232;BME280;7200;52.194;9.900;2023-02-19T00:11:17;100272.13;;;9.97;100.00
14232;BME280;7200;52.194;9.900;2023-02-19T00:13:45;100282.06;;;9.88;100.00
14232;BME280;7200;52.194;9.900;2023-02-19T00:16:16;100289.19;;;9.86;100.00
14232;BME280;7200;52.194;9.900;2023-02-19T00:18:42;100282.25;;;9.84;100.00
14232;BME280;7200;52.194;9.900;2023-02-19T00:21:07;100277.03;;;9.82;100.00
14232;BME280;7200;52.194;9.900;2023-02-19T00:23:33;100283.44;;;10.00;100.00
14232;BME280;7200;52.194;9.900;2023-02-19T00:26:11;100281.50;;;10.04;100.00
14232;BME280;7200;52.194;9.900;2023-02-19T00:28:37;100270.47;;;9.94;100.00
14232;BME280;7200;52.194;9.900;2023-02-19T00:31:07;100256.53;;;9.90;100.00
14232;BME280;7200;52.194;9.900;2023-02-19T00:33:33;100247.03;;;9.86;100.00
14232;BME280;7200;52.194;9.900;2023-02-19T00:36:03;100267.72;;;9.97;100.00
14232;BME280;7200;52.194;9.900;2023-02-19T00:38:29;100248.09;;;9.81;100.00
14232;BME280;7200;52.194;9.900;2023-02-19T00:40:54;100267.94;;;9.91;100.00
14232;BME280;7200;52.194;9.900;2023-02-19T00:43:20;100283.44;;;10.00;100.00
14232;BME280;7200;52.194;9.900;2023-02-19T00:45:45;100267.63;;;10.00;100.00
14232;BME280;7200;52.194;9.900;2023-02-19T00:48:10;100246.44;;;9.78;100.00
14232;BME280;7200;52.194;9.900;2023-02-19T00:50:35;100265.97;;;9.96;100.00
14232;BME280;7200;52.194;9.900;2023-02-19T00:53:01;100264.63;;;10.09;100.00
14232;BME280;7200;52.194;9.900;2023-02-19T00:55:26;100244.75;;;10.01;100.00
14232;BME280;7200;52.194;9.900;2023-02-19T00:57:51;100258.00;;;10.23;100.00
14232;BME280;7200;52.194;9.900;2023-02-19T01:00:17;100237.25;;;10.13;100.00
14232;BME280;7200;52.194;9.900;2023-02-19T01:02:42;100238.66;;;10.22;100.00
14232;BME280;7200;52.194;9.900;2023-02-19T01:05:07;100212.53;;;10.16;100.00
14232;BME280;7200;52.194;9.900;2023-02-19T01:07:35;100193.06;;;9.97;100.00
14232;BME280;7200;52.194;9.900;2023-02-19T01:10:00;100220.78;;;10.07;100.00
14232;BME280;7200;52.194;9.900;2023-02-19T01:12:26;100212.13;;;10.03;100.00
14232;BME280;7200;52.194;9.900;2023-02-19T01:14:52;100245.81;;;10.19;100.00
14232;BME280;7200;52.194;9.900;2023-02-19T01:17:18;100219.00;;;10.07;100.00
14232;BME280;7200;52.194;9.900;2023-02-19T01:19:44;100220.19;;;10.00;100.00
14232;BME280;7200;52.194;9.900;2023-02-19T01:22:09;100218.34;;;10.02;100.00
14232;BME280;7200;52.194;9.900;2023-02-19T01:24:34;100206.13;;;10.00;100.00
14232;BME280;7200;52.194;9.900;2023-02-19T01:27:00;100211.69;;;10.16;100.00
14232;BME280;7200;52.194;9.900;2023-02-19T01:29:25;100188.38;;;10.05;100.00
14232;BME280;7200;52.194;9.900;2023-02-19T01:31:50;100182.69;;;9.92;100.00
14232;BME280;7200;52.194;9.900;2023-02-19T01:34:15;100202.34;;;10.07;100.00
14232;BME280;7200;52.194;9.900;2023-02-19T01:36:41;100190.31;;;10.00;100.00
14232;BME280;7200;52.194;9.900;2023-02-19T01:39:06;100213.44;;;10.15;100.00
14232;BME280;7200;52.194;9.900;2023-02-19T01:41:35;100225.91;;;10.11;100.00
14232;BME280;7200;52.194;9.900;2023-02-19T01:44:06;100228.00;;;10.25;100.00
14232;BME280;7200;52.194;9.900;2023-02-19T01:46:34;100244.34;;;10.35;100.00
14232;BME280;7200;52.194;9.900;2023-02-19T01:51:37;100212.38;;;9.97;100.00
14232;BME280;7200;52.194;9.900;2023-02-19T01:54:04;100226.44;;;9.96;100.00
14232;BME280;7200;52.194;9.900;2023-02-19T01:56:32;100228.66;;;10.08;100.00
14232;BME280;7200;52.194;9.900;2023-02-19T01:58:59;100220.75;;;10.08;100.00
14232;BME280;7200;52.194;9.900;2023-02-19T02:01:25;100201.28;;;9.89;100.00
14232;BME280;7200;52.194;9.900;2023-02-19T02:03:50;100220.38;;;9.94;100.00
14232;BME280;7200;52.194;9.900;2023-02-19T02:08:50;100253.28;;;10.07;100.00
14232;BME280;7200;52.194;9.900;2023-02-19T02:11:34;100232.53;;;9.74;100.00
14232;BME280;7200;52.194;9.900;2023-02-19T02:14:01;100261.28;;;9.81;100.00
14232;BME280;7200;52.194;9.900;2023-02-19T02:16:44;100232.56;;;9.73;100.00
14232;BME280;7200;52.194;9.900;2023-02-19T02:22:03;100246.44;;;9.78;100.00
14232;BME280;7200;52.194;9.900;2023-02-19T02:32:39;100202.50;;;9.55;100.00
14232;BME280;7200;52.194;9.900;2023-02-19T02:35:09;100216.47;;;9.57;100.00
14232;BME280;7200;52.194;9.900;2023-02-19T02:37:37;100220.59;;;9.64;100.00
14232;BME280;7200;52.194;9.900;2023-02-19T02:40:06;100220.53;;;9.66;100.00
14232;BME280;7200;52.194;9.900;2023-02-19T02:42:33;100229.66;;;9.81;100.00
14232;BME280;7200;52.194;9.900;2023-02-19T02:45:24;100240.72;;;9.90;100.00
14232;BME280;7200;52.194;9.900;2023-02-19T02:48:00;100238.88;;;9.92;100.00
14232;BME280;7200;52.194;9.900;2023-02-19T02:50:32;100233.69;;;9.91;100.00
14232;BME280;7200;52.194;9.900;2023-02-19T02:53:01;100213.75;;;9.84;100.00
14232;BME280;7200;52.194;9.900;2023-02-19T02:55:48;100219.47;;;9.95;100.00
14232;BME280;7200;52.194;9.900;2023-02-19T02:58:16;100226.81;;;10.10;100.00
14232;BME280;7200;52.194;9.900;2023-02-19T03:00:45;100223.94;;;10.17;100.00
14232;BME280;7200;52.194;9.900;2023-02-19T03:03:33;100209.19;;;10.11;100.00
14232;BME280;7200;52.194;9.900;2023-02-19T03:06:05;100186.41;;;10.10;100.00
14232;BME280;7200;52.194;9.900;2023-02-19T03:08:47;100185.44;;;10.12;100.00
14232;BME280;7200;52.194;9.900;2023-02-19T03:11:15;100197.41;;;10.21;100.00
14232;BME280;7200;52.194;9.900;2023-02-19T03:14:18;100178.16;;;10.19;100.00
14232;BME280;7200;52.194;9.900;2023-02-19T03:17:27;100178.06;;;10.21;100.00
14232;BME280;7200;52.194;9.900;2023-02-19T03:20:15;100166.00;;;10.15;100.00
14232;BME280;7200;52.194;9.900;2023-02-19T03:22:43;100160.72;;;10.15;100.00
14232;BME280;7200;52.194;9.900;2023-02-19T03:25:12;100173.03;;;10.14;100.00
14232;BME280;7200;52.194;9.900;2023-02-19T03:28:00;100182.34;;;10.25;100.00
14232;BME280;7200;52.194;9.900;2023-02-19T03:30:30;100162.44;;;10.16;100.00
14232;BME280;7200;52.194;9.900;2023-02-19T03:33:03;100179.28;;;10.36;100.00
14232;BME280;7200;52.194;9.900;2023-02-19T03:35:34;100163.59;;;10.32;100.00
14232;BME280;7200;52.194;9.900;2023-02-19T03:38:16;100163.28;;;10.40;100.00
14232;BME280;7200;52.194;9.900;2023-02-19T03:40:58;100141.16;;;10.21;100.00
14232;BME280;7200;52.194;9.900;2023-02-19T03:44:15;100141.84;;;10.26;100.00
14232;BME280;7200;52.194;9.900;2023-02-19T03:46:50;100152.44;;;10.24;100.00
14232;BME280;7200;52.194;9.900;2023-02-19T03:52:25;100141.41;;;10.14;100.00
14232;BME280;7200;52.194;9.900;2023-02-19T03:57:56;100164.88;;;10.21;100.00
14232;BME280;7200;52.194;9.900;2023-02-19T04:00:31;100165.78;;;10.21;100.00
14232;BME280;7200;52.194;9.900;2023-02-19T04:05:47;100148.66;;;9.62;100.00
14232;BME280;7200;52.194;9.900;2023-02-19T04:08:17;100138.47;;;9.53;100.00
14232;BME280;7200;52.194;9.900;2023-02-19T04:10:45;100121.25;;;9.19;100.00
14232;BME280;7200;52.194;9.900;2023-02-19T04:13:18;100110.44;;;9.03;100.00
14232;BME280;7200;52.194;9.900;2023-02-19T04:15:46;100131.38;;;9.06;100.00
14232;BME280;7200;52.194;9.900;2023-02-19T04:18:16;100132.59;;;8.96;100.00
14232;BME280;7200;52.194;9.900;2023-02-19T04:20:44;100141.53;;;8.92;100.00
14232;BME280;7200;52.194;9.900;2023-02-19T04:23:11;100126.56;;;8.67;100.00
14232;BME280;7200;52.194;9.900;2023-02-19T04:25:38;100126.63;;;8.37;100.00
14232;BME280;7200;52.194;9.900;2023-02-19T04:28:07;100155.88;;;8.55;100.00
14232;BME280;7200;52.194;9.900;2023-02-19T04:30:32;100182.91;;;8.60;100.00
14232;BME280;7200;52.194;9.900;2023-02-19T04:32:57;100197.88;;;8.58;100.00
14232;BME280;7200;52.194;9.900;2023-02-19T04:35:22;100237.38;;;8.83;100.00
14232;BME280;7200;52.194;9.900;2023-02-19T04:37:48;100242.47;;;8.89;100.00
14232;BME280;7200;52.194;9.900;2023-02-19T04:40:13;100227.63;;;8.87;100.00
14232;BME280;7200;52.194;9.900;2023-02-19T04:42:38;100207.28;;;8.65;100.00
14232;BME280;7200;52.194;9.900;2023-02-19T04:45:04;100216.16;;;8.63;100.00
14232;BME280;7200;52.194;9.900;2023-02-19T04:47:30;100232.63;;;8.68;100.00
14232;BME280;7200;52.194;9.900;2023-02-19T04:49:56;100260.88;;;8.89;100.00
14232;BME280;7200;52.194;9.900;2023-02-19T04:52:21;100260.97;;;8.86;100.00
14232;BME280;7200;52.194;9.900;2023-02-19T04:54:47;100240.25;;;8.75;100.00
14232;BME280;7200;52.194;9.900;2023-02-19T04:57:12;100226.72;;;8.61;100.00
14232;BME280;7200;52.194;9.900;2023-02-19T04:59:37;100213.13;;;8.47;100.00
14232;BME280;7200;52.194;9.900;2023-02-19T05:02:03;100234.03;;;8.51;100.00
14232;BME280;7200;52.194;9.900;2023-02-19T05:04:28;100215.34;;;8.31;100.00
14232;BME280;7200;52.194;9.900;2023-02-19T05:06:53;100219.16;;;8.21;100.00
14232;BME280;7200;52.194;9.900;2023-02-19T05:09:18;100219.53;;;8.08;100.00
14232;BME280;7200;52.194;9.900;2023-02-19T05:11:44;100227.41;;;8.08;100.00
14232;BME280;7200;52.194;9.900;2023-02-19T05:14:09;100253.50;;;8.14;100.00
14232;BME280;7200;52.194;9.900;2023-02-19T05:16:34;100238.16;;;8.01;100.00
14232;BME280;7200;52.194;9.900;2023-02-19T05:19:00;100254.56;;;8.07;100.00
14232;BME280;7200;52.194;9.900;2023-02-19T05:21:25;100269.59;;;8.02;100.00
14232;BME280;7200;52.194;9.900;2023-02-19T05:23:51;100275.78;;;8.01;100.00
14232;BME280;7200;52.194;9.900;2023-02-19T05:26:19;100287.31;;;7.95;100.00
14232;BME280;7200;52.194;9.900;2023-02-19T05:28:46;100273.16;;;7.68;100.00
14232;BME280;7200;52.194;9.900;2023-02-19T05:31:12;100318.38;;;7.79;100.00
14232;BME280;7200;52.194;9.900;2023-02-19T05:33:38;100354.50;;;8.04;100.00
14232;BME280;7200;52.194;9.900;2023-02-19T05:36:11;100336.22;;;8.01;100.00
14232;BME280;7200;52.194;9.900;2023-02-19T05:38:37;100349.19;;;8.06;100.00
14232;BME280;7200;52.194;9.900;2023-02-19T05:41:10;100350.38;;;7.95;100.00
14232;BME280;7200;52.194;9.900;2023-02-19T05:43:36;100366.91;;;7.99;100.00
14232;BME280;7200;52.194;9.900;2023-02-19T05:46:02;100329.09;;;7.72;100.00
14232;BME280;7200;52.194;9.900;2023-02-19T05:48:27;100337.06;;;7.69;100.00
14232;BME280;7200;52.194;9.900;2023-02-19T05:50:53;100298.41;;;7.41;100.00
14232;BME280;7200;52.194;9.900;2023-02-19T05:53:18;100321.94;;;7.44;100.00
14232;BME280;7200;52.194;9.900;2023-02-19T05:55:43;100332.34;;;7.47;100.00
14232;BME280;7200;52.194;9.900;2023-02-19T05:58:08;100354.13;;;7.52;100.00
14232;BME280;7200;52.194;9.900;2023-02-19T06:00:34;100373.28;;;7.56;100.00
14232;BME280;7200;52.194;9.900;2023-02-19T06:02:59;100375.94;;;7.54;100.00
14232;BME280;7200;52.194;9.900;2023-02-19T06:05:25;100352.72;;;7.37;100.00
14232;BME280;7200;52.194;9.900;2023-02-19T06:07:50;100363.19;;;7.39;100.00
14232;BME280;7200;52.194;9.900;2023-02-19T06:10:16;100364.09;;;7.36;100.00
14232;BME280;7200;52.194;9.900;2023-02-19T06:12:42;100385.84;;;7.43;100.00
14232;BME280;7200;52.194;9.900;2023-02-19T06:15:07;100372.22;;;7.27;100.00
14232;BME280;7200;52.194;9.900;2023-02-19T06:17:33;100428.69;;;7.44;100.00
14232;BME280;7200;52.194;9.900;2023-02-19T06:19:59;100415.78;;;7.34;100.00
14232;BME280;7200;52.194;9.900;2023-02-19T06:22:24;100426.28;;;7.34;100.00
14232;BME280;7200;52.194;9.900;2023-02-19T06:24:49;100407.44;;;7.17;100.00
14232;BME280;7200;52.194;9.900;2023-02-19T06:27:15;100417.88;;;7.20;100.00
14232;BME280;7200;52.194;9.900;2023-02-19T06:29:40;100389.81;;;6.85;100.00
14232;BME280;7200;52.194;9.900;2023-02-19T06:32:06;100382.13;;;6.75;100.00
14232;BME280;7200;52.194;9.900;2023-02-19T06:34:32;100396.97;;;6.76;100.00
14232;BME280;7200;52.194;9.900;2023-02-19T06:36:58;100392.66;;;6.72;100.00
14232;BME280;7200;52.194;9.900;2023-02-19T06:39:24;100395.53;;;6.63;100.00
14232;BME280;7200;52.194;9.900;2023-02-19T06:41:49;100405.03;;;6.67;100.00
14232;BME280;7200;52.194;9.900;2023-02-19T06:44:15;100391.44;;;6.48;100.00
14232;BME280;7200;52.194;9.900;2023-02-19T06:46:40;100424.44;;;6.58;100.00
14232;BME280;7200;52.194;9.900;2023-02-19T06:49:06;100431.63;;;6.49;100.00
14232;BME280;7200;52.194;9.900;2023-02-19T06:51:31;100425.53;;;6.47;100.00
14232;BME280;7200;52.194;9.900;2023-02-19T06:53:58;100432.78;;;6.34;100.00
14232;BME280;7200;52.194;9.900;2023-02-19T06:56:35;100434.72;;;6.24;100.00
14232;BME280;7200;52.194;9.900;2023-02-19T06:59:03;100450.50;;;6.19;100.00
14232;BME280;7200;52.194;9.900;2023-02-19T07:01:31;100456.72;;;6.14;100.00
14232;BME280;7200;52.194;9.900;2023-02-19T07:03:57;100443.00;;;5.99;100.00
14232;BME280;7200;52.194;9.900;2023-02-19T07:06:23;100453.81;;;5.76;100.00
14232;BME280;7200;52.194;9.900;2023-02-19T07:08:50;100479.91;;;5.84;100.00
14232;BME280;7200;52.194;9.900;2023-02-19T07:11:15;100448.97;;;5.52;100.00
14232;BME280;7200;52.194;9.900;2023-02-19T07:13:43;100457.81;;;5.44;100.00
14232;BME280;7200;52.194;9.900;2023-02-19T07:16:09;100473.47;;;5.47;100.00
14232;BME280;7200;52.194;9.900;2023-02-19T07:18:36;100516.03;;;5.59;100.00
14232;BME280;7200;52.194;9.900;2023-02-19T07:21:10;100529.00;;;5.68;100.00
14232;BME280;7200;52.194;9.900;2023-02-19T07:23:36;100523.84;;;5.62;100.00
14232;BME280;7200;52.194;9.900;2023-02-19T07:26:02;100551.63;;;5.71;100.00
14232;BME280;7200;52.194;9.900;2023-02-19T07:28:27;100568.22;;;5.71;100.00
14232;BME280;7200;52.194;9.900;2023-02-19T07:30:53;100573.56;;;5.63;100.00
14232;BME280;7200;52.194;9.900;2023-02-19T07:33:18;100569.31;;;5.56;100.00
14232;BME280;7200;52.194;9.900;2023-02-19T07:35:45;100596.25;;;5.63;100.00
14232;BME280;7200;52.194;9.900;2023-02-19T07:38:11;100617.06;;;5.72;100.00
14232;BME280;7200;52.194;9.900;2023-02-19T07:40:36;100602.31;;;5.65;100.00
14232;BME280;7200;52.194;9.900;2023-02-19T07:43:02;100635.31;;;5.78;100.00
14232;BME280;7200;52.194;9.900;2023-02-19T07:45:27;100634.50;;;5.73;100.00
14232;BME280;7200;52.194;9.900;2023-02-19T07:47:52;100644.97;;;5.73;100.00
14232;BME280;7200;52.194;9.900;2023-02-19T07:50:17;100658.84;;;5.80;100.00
14232;BME280;7200;52.194;9.900;2023-02-19T07:52:43;100652.81;;;5.75;100.00
14232;BME280;7200;52.194;9.900;2023-02-19T07:55:08;100671.88;;;5.86;100.00
14232;BME280;7200;52.194;9.900;2023-02-19T07:57:33;100696.94;;;6.06;100.00
14232;BME280;7200;52.194;9.900;2023-02-19T07:59:59;100688.28;;;6.00;100.00
14232;BME280;7200;52.194;9.900;2023-02-19T08:02:24;100682.19;;;6.00;100.00
14232;BME280;7200;52.194;9.900;2023-02-19T08:05:08;100694.22;;;6.13;100.00
14232;BME280;7200;52.194;9.900;2023-02-19T08:07:35;100703.84;;;6.14;100.00
14232;BME280;7200;52.194;9.900;2023-02-19T08:10:01;100686.47;;;6.06;100.00
14232;BME280;7200;52.194;9.900;2023-02-19T08:13:03;100722.00;;;6.25;100.00
14232;BME280;7200;52.194;9.900;2023-02-19T08:16:08;100752.38;;;6.40;100.00
14232;BME280;7200;52.194;9.900;2023-02-19T08:18:31;100743.78;;;6.30;100.00
14232;BME280;7200;52.194;9.900;2023-02-19T08:20:57;100717.00;;;6.08;100.00
14232;BME280;7200;52.194;9.900;2023-02-19T08:23:23;100715.41;;;5.96;100.00
14232;BME280;7200;52.194;9.900;2023-02-19T08:25:50;100748.28;;;6.20;100.00
14232;BME280;7200;52.194;9.900;2023-02-19T08:28:16;100743.16;;;6.11;100.00
14232;BME280;7200;52.194;9.900;2023-02-19T08:30:43;100783.81;;;6.38;100.00
14232;BME280;7200;52.194;9.900;2023-02-19T08:33:11;100743.19;;;6.08;100.00
14232;BME280;7200;52.194;9.900;2023-02-19T08:35:37;100742.41;;;6.03;100.00
14232;BME280;7200;52.194;9.900;2023-02-19T08:38:03;100699.97;;;5.73;100.00
14232;BME280;7200;52.194;9.900;2023-02-19T08:40:29;100684.50;;;5.52;100.00
14232;BME280;7200;52.194;9.900;2023-02-19T08:42:54;100714.97;;;5.57;100.00
14232;BME280;7200;52.194;9.900;2023-02-19T08:45:20;100764.38;;;5.87;100.00
14232;BME280;7200;52.194;9.900;2023-02-19T08:47:47;100787.03;;;5.95;100.00
14232;BME280;7200;52.194;9.900;2023-02-19T08:50:12;100739.22;;;5.75;100.00
14232;BME280;7200;52.194;9.900;2023-02-19T08:52:37;100713.19;;;5.59;100.00
14232;BME280;7200;52.194;9.900;2023-02-19T08:55:04;100739.16;;;5.76;100.00
14232;BME280;7200;52.194;9.900;2023-02-19T08:57:29;100741.00;;;5.73;100.00
14232;BME280;7200;52.194;9.900;2023-02-19T08:59:55;100765.22;;;5.89;100.00
14232;BME280;7200;52.194;9.900;2023-02-19T09:02:22;100779.00;;;6.06;100.00
14232;BME280;7200;52.194;9.900;2023-02-19T09:04:48;100738.13;;;5.91;100.00
14232;BME280;7200;52.194;9.900;2023-02-19T09:07:13;100807.47;;;6.37;100.00
14232;BME280;7200;52.194;9.900;2023-02-19T09:09:39;100810.81;;;6.48;100.00
14232;BME280;7200;52.194;9.900;2023-02-19T09:12:10;100783.06;;;6.32;100.00
14232;BME280;7200;52.194;9.900;2023-02-19T09:14:36;100786.56;;;6.31;100.00
14232;BME280;7200;52.194;9.900;2023-02-19T09:17:02;100745.97;;;5.97;100.00
14232;BME280;7200;52.194;9.900;2023-02-19T09:19:28;100745.13;;;5.89;100.00
14232;BME280;7200;52.194;9.900;2023-02-19T09:21:54;100759.06;;;5.93;100.00
14232;BME280;7200;52.194;9.900;2023-02-19T09:24:19;100746.97;;;5.82;100.00
14232;BME280;7200;52.194;9.900;2023-02-19T09:26:47;100747.16;;;5.67;100.00
14232;BME280;7200;52.194;9.900;2023-02-19T09:29:13;100801.91;;;5.87;100.00
14232;BME280;7200;52.194;9.900;2023-02-19T09:31:39;100811.44;;;5.97;100.00
14232;BME280;7200;52.194;9.900;2023-02-19T09:34:04;100834.81;;;6.14;100.00
14232;BME280;7200;52.194;9.900;2023-02-19T09:36:29;100809.59;;;6.06;100.00
14232;BME280;7200;52.194;9.900;2023-02-19T09:38:56;100816.50;;;6.11;100.00
14232;BME280;7200;52.194;9.900;2023-02-19T09:41:38;100771.31;;;5.95;100.00
14232;BME280;7200;52.194;9.900;2023-02-19T09:44:11;100800.75;;;6.14;100.00
14232;BME280;7200;52.194;9.900;2023-02-19T09:46:48;100809.34;;;6.26;100.00
14232;BME280;7200;52.194;9.900;2023-02-19T09:51:48;100836.84;;;6.60;100.00
14232;BME280;7200;52.194;9.900;2023-02-19T09:54:21;100819.16;;;6.75;100.00
14232;BME280;7200;52.194;9.900;2023-02-19T09:56:47;100859.94;;;6.97;100.00
14232;BME280;7200;52.194;9.900;2023-02-19T09:59:27;100825.22;;;6.80;100.00
14232;BME280;7200;52.194;9.900;2023-02-19T10:02:04;100859.00;;;7.01;100.00
14232;BME280;7200;52.194;9.900;2023-02-19T10:04:36;100797.59;;;6.54;100.00
14232;BME280;7200;52.194;9.900;2023-02-19T10:07:02;100795.91;;;6.50;100.00
14232;BME280;7200;52.194;9.900;2023-02-19T10:09:29;100796.81;;;6.48;100.00
14232;BME280;7200;52.194;9.900;2023-02-19T10:11:55;100820.13;;;6.69;100.00
14232;BME280;7200;52.194;9.900;2023-02-19T10:14:33;100891.88;;;7.24;100.00
14232;BME280;7200;52.194;9.900;2023-02-19T10:17:03;100838.13;;;6.92;100.00
14232;BME280;7200;52.194;9.900;2023-02-19T10:19:29;100806.00;;;6.78;100.00
14232;BME280;7200;52.194;9.900;2023-02-19T10:21:55;100830.31;;;6.89;100.00
14232;BME280;7200;52.194;9.900;2023-02-19T10:24:25;100840.50;;;7.09;100.00
14232;BME280;7200;52.194;9.900;2023-02-19T10:26:51;100820.59;;;6.97;100.00
14232;BME280;7200;52.194;9.900;2023-02-19T10:29:17;100765.22;;;6.58;100.00
14232;BME280;7200;52.194;9.900;2023-02-19T10:31:43;100846.91;;;6.91;100.00
14232;BME280;7200;52.194;9.900;2023-02-19T10:34:17;100857.34;;;6.93;100.00
14232;BME280;7200;52.194;9.900;2023-02-19T10:36:46;100900.59;;;7.28;100.00
14232;BME280;7200;52.194;9.900;2023-02-19T10:41:50;100864.84;;;7.17;100.00
14232;BME280;7200;52.194;9.900;2023-02-19T10:44:25;100872.34;;;7.42;100.00
14232;BME280;7200;52.194;9.900;2023-02-19T10:46:53;100895.94;;;7.45;100.00
14232;BME280;7200;52.194;9.900;2023-02-19T10:49:30;100831.84;;;7.04;100.00
14232;BME280;7200;52.194;9.900;2023-02-19T10:51:59;100823.00;;;7.10;100.00
14232;BME280;7200;52.194;9.900;2023-02-19T10:54:29;100882.81;;;7.44;100.00
14232;BME280;7200;52.194;9.900;2023-02-19T10:59:48;100852.03;;;7.53;100.00
14232;BME280;7200;52.194;9.900;2023-02-19T11:02:16;100836.41;;;7.46;100.00
14232;BME280;7200;52.194;9.900;2023-02-19T11:07:28;100852.91;;;7.54;100.00
14232;BME280;7200;52.194;9.900;2023-02-19T11:09:54;100780.81;;;7.22;100.00
14232;BME280;7200;52.194;9.900;2023-02-19T11:12:32;100816.66;;;7.23;100.00
14232;BME280;7200;52.194;9.900;2023-02-19T11:17:43;100809.03;;;7.09;100.00
14232;BME280;7200;52.194;9.900;2023-02-19T11:20:14;100850.56;;;7.37;100.00
14232;BME280;7200;52.194;9.900;2023-02-19T11:22:41;100821.69;;;7.38;100.00
14232;BME280;7200;52.194;9.900;2023-02-19T11:32:54;100797.06;;;7.44;100.00
14232;BME280;7200;52.194;9.900;2023-02-19T11:35:21;100787.75;;;7.26;100.00
14232;BME280;7200;52.194;9.900;2023-02-19T11:37:57;100775.06;;;7.00;100.00
14232;BME280;7200;52.194;9.900;2023-02-19T11:40:32;100799.19;;;7.22;100.00
14232;BME280;7200;52.194;9.900;2023-02-19T11:43:25;100862.19;;;7.73;100.00
14232;BME280;7200;52.194;9.900;2023-02-19T11:46:05;100801.81;;;7.70;100.00
14232;BME280;7200;52.194;9.900;2023-02-19T11:54:27;100744.59;;;7.43;100.00
14232;BME280;7200;52.194;9.900;2023-02-19T12:02:53;100820.97;;;7.77;100.00
14232;BME280;7200;52.194;9.900;2023-02-19T12:05:35;100840.66;;;8.01;100.00
14232;BME280;7200;52.194;9.900;2023-02-19T12:19:43;100744.44;;;7.50;100.00
14232;BME280;7200;52.194;9.900;2023-02-19T12:25:23;100752.91;;;7.65;100.00
14232;BME280;7200;52.194;9.900;2023-02-19T12:35:55;100781.28;;;7.92;100.00
14232;BME280;7200;52.194;9.900;2023-02-19T12:38:35;100772.66;;;7.86;100.00
14232;BME280;7200;52.194;9.900;2023-02-19T12:41:19;100804.56;;;8.11;100.00
14232;BME280;7200;52.194;9.900;2023-02-19T12:44:15;100813.25;;;8.14;100.00
14232;BME280;7200;52.194;9.900;2023-02-19T12:46:47;100790.44;;;8.16;100.00
14232;BME280;7200;52.194;9.900;2023-02-19T12:49:20;100777.34;;;8.13;100.00
14232;BME280;7200;52.194;9.900;2023-02-19T12:51:54;100713.19;;;7.82;100.00
14232;BME280;7200;52.194;9.900;2023-02-19T12:54:43;100756.66;;;7.98;100.00
14232;BME280;7200;52.194;9.900;2023-02-19T12:57:14;100729.56;;;7.94;100.00
14232;BME280;7200;52.194;9.900;2023-02-19T12:59:57;100694.13;;;7.72;100.00
14232;BME280;7200;52.194;9.900;2023-02-19T13:02:37;100776.69;;;8.02;100.00
14232;BME280;7200;52.194;9.900;2023-02-19T13:05:18;100784.41;;;8.10;100.00
14232;BME280;7200;52.194;9.900;2023-02-19T13:08:09;100789.38;;;8.25;100.00
14232;BME280;7200;52.194;9.900;2023-02-19T13:10:57;100790.88;;;8.37;100.00
14232;BME280;7200;52.194;9.900;2023-02-19T13:13:34;100823.78;;;8.56;100.00
14232;BME280;7200;52.194;9.900;2023-02-19T13:16:09;100774.19;;;8.38;100.00
14232;BME280;7200;52.194;9.900;2023-02-19T13:18:44;100760.84;;;8.07;100.00
14232;BME280;7200;52.194;9.900;2023-02-19T13:21:11;100814.59;;;8.34;100.00
14232;BME280;7200;52.194;9.900;2023-02-19T13:23:40;100778.56;;;7.97;100.00
14232;BME280;7200;52.194;9.900;2023-02-19T13:37:07;100845.75;;;8.54;100.00
14232;BME280;7200;52.194;9.900;2023-02-19T13:39:33;100830.84;;;8.54;100.00
14232;BME280;7200;52.194;9.900;2023-02-19T13:41:59;100798.41;;;8.55;100.00
14232;BME280;7200;52.194;9.900;2023-02-19T13:44:28;100762.16;;;8.68;100.00
14232;BME280;7200;52.194;9.900;2023-02-19T13:46:54;100735.13;;;8.62;100.00
14232;BME280;7200;52.194;9.900;2023-02-19T14:01:09;100767.50;;;8.65;100.00
14232;BME280;7200;52.194;9.900;2023-02-19T14:03:44;100737.09;;;8.53;100.00
14232;BME280;7200;52.194;9.900;2023-02-19T14:06:11;100706.00;;;8.30;100.00
14232;BME280;7200;52.194;9.900;2023-02-19T14:08:50;100757.25;;;8.53;100.00
14232;BME280;7200;52.194;9.900;2023-02-19T14:11:18;100762.69;;;8.44;100.00
14232;BME280;7200;52.194;9.900;2023-02-19T14:14:02;100750.41;;;8.46;100.00
14232;BME280;7200;52.194;9.900;2023-02-19T14:19:03;100703.03;;;8.47;100.00
14232;BME280;7200;52.194;9.900;2023-02-19T14:21:37;100743.19;;;8.55;100.00
14232;BME280;7200;52.194;9.900;2023-02-19T14:24:03;100748.75;;;8.40;100.00
14232;BME280;7200;52.194;9.900;2023-02-19T14:26:32;100725.06;;;8.42;100.00
14232;BME280;7200;52.194;9.900;2023-02-19T14:28:59;100737.31;;;8.43;100.00
14232;BME280;7200;52.194;9.900;2023-02-19T14:31:26;100738.16;;;8.45;100.00
14232;BME280;7200;52.194;9.900;2023-02-19T14:36:35;100736.56;;;8.36;100.00
14232;BME280;7200;52.194;9.900;2023-02-19T14:39:16;100701.56;;;8.32;100.00
14232;BME280;7200;52.194;9.900;2023-02-19T14:41:48;100680.50;;;8.35;100.00
14232;BME280;7200;52.194;9.900;2023-02-19T14:44:19;100663.81;;;8.36;100.00
14232;BME280;7200;52.194;9.900;2023-02-19T14:46:52;100717.00;;;8.49;100.00
14232;BME280;7200;52.194;9.900;2023-02-19T14:49:24;100696.50;;;8.25;100.00
14232;BME280;7200;52.194;9.900;2023-02-19T14:52:02;100765.59;;;8.31;100.00
14232;BME280;7200;52.194;9.900;2023-02-19T14:54:36;100775.06;;;8.38;100.00
14232;BME280;7200;52.194;9.900;2023-02-19T14:57:04;100737.13;;;8.10;100.00
14232;BME280;7200;52.194;9.900;2023-02-19T14:59:34;100788.56;;;8.23;100.00